Nether Providence, Pennsylvania
Current Conditions -  °F | °C
As of 1:54 PM on Sunday 21 Dec 2014 (Local Time) from KPHL Reporting Station
Scattered Clouds Scattered Clouds  
Wind Chill: 33°   Ceiling: Unl
Heat Index: 39°   Visibility: 10mi
Dew Point: 22°   Wind: 9mph
Humidity: 50%   Direction: 340°NNW
Pressure: 30.31"   Gusts: NA
Location:  39.8901°N, 75.3702°W
Report Text: KPHL 211854Z 34008KT 10SM FEW028 SCT035 SCT070 04/M06 A3031 RMK AO2 SLP262 T00391056
Loading
Personal Weather Stations






























Interactive Weather Map New forecast layout! Learn more

10-Day Weather Forecast

Advertisements
Track Severe Weather on mobile